Time;durP1;ratioP1;P1;durP2;ratioP2;P2;SDS_P1;SDS_P2;PMS_P1;PMS_P2;Temp;Humidity;BMP_temperature;BMP_pressure;BME280_temperature;BME280_humidity;BME280_pressure;Samples;Min_cycle;Max_cycle;Signal;HPM_P1;HPM_P2
2023/06/23 00:01:56;;;;;;;8.55;4.47;;;19.50;99.90;;;;;;5049927;28;20223;-82
2023/06/23 00:04:23;;;;;;;10.65;3.95;;;19.60;99.90;;;;;;5042933;28;20210;-83
2023/06/23 00:06:51;;;;;;;6.95;3.67;;;19.60;99.90;;;;;;5074968;28;20194;-82
2023/06/23 00:09:18;;;;;;;7.13;3.53;;;19.70;99.90;;;;;;5071071;28;20205;-83
2023/06/23 00:11:45;;;;;;;5.57;3.33;;;19.70;99.90;;;;;;5080077;28;20229;-82
2023/06/23 00:14:12;;;;;;;8.60;3.60;;;19.70;99.90;;;;;;5079612;28;20214;-84
2023/06/23 00:16:39;;;;;;;7.05;3.50;;;19.80;99.90;;;;;;5080575;28;20267;-83
2023/06/23 00:19:08;;;;;;;5.93;3.30;;;19.60;99.90;;;;;;5080463;28;20202;-84
2023/06/23 00:21:35;;;;;;;5.40;3.78;;;19.70;99.90;;;;;;5079747;28;20719;-82
2023/06/23 00:24:02;;;;;;;8.80;3.58;;;19.60;99.90;;;;;;5068872;28;20195;-82
2023/06/23 00:26:29;;;;;;;6.60;3.10;;;19.60;99.90;;;;;;5058312;28;20314;-84
2023/06/23 00:28:55;;;;;;;9.23;3.92;;;19.60;99.90;;;;;;5059865;28;20202;-83
2023/06/23 00:31:22;;;;;;;7.22;3.60;;;19.50;99.90;;;;;;5066993;28;20606;-83
2023/06/23 00:33:49;;;;;;;6.50;3.55;;;19.40;99.90;;;;;;5059682;28;20266;-81
2023/06/23 00:36:17;;;;;;;10.48;3.95;;;19.20;99.90;;;;;;5059417;28;20553;-83
2023/06/23 00:38:45;;;;;;;5.78;3.63;;;19.10;99.90;;;;;;5059863;28;20270;-84
2023/06/23 00:41:12;;;;;;;7.22;3.65;;;18.90;99.90;;;;;;5058892;28;20253;-83
2023/06/23 00:43:39;;;;;;;7.13;3.42;;;18.80;99.90;;;;;;5059775;28;20866;-82
2023/06/23 00:46:11;;;;;;;6.43;3.60;;;18.60;99.90;;;;;;5058547;28;20229;-82
2023/06/23 00:48:39;;;;;;;8.63;4.93;;;18.50;99.90;;;;;;5044346;28;20207;-81
2023/06/23 00:51:06;;;;;;;7.35;5.05;;;18.50;99.90;;;;;;5040606;28;20242;-82
2023/06/23 00:53:34;;;;;;;9.20;5.97;;;18.50;99.90;;;;;;5078607;28;20210;-82
2023/06/23 00:56:01;;;;;;;9.65;6.07;;;18.40;99.90;;;;;;5069191;28;20331;-81
2023/06/23 00:58:34;;;;;;;11.95;6.22;;;18.40;99.90;;;;;;5059023;28;20206;-83
2023/06/23 01:01:02;;;;;;;9.50;6.00;;;18.30;99.90;;;;;;5059244;28;20279;-81
2023/06/23 01:03:29;;;;;;;7.00;5.43;;;18.30;99.90;;;;;;5060599;28;20532;-80
2023/06/23 01:06:01;;;;;;;9.38;5.60;;;18.30;99.90;;;;;;5059484;28;20215;-83
2023/06/23 01:08:38;;;;;;;12.40;6.00;;;18.40;99.90;;;;;;5059548;28;20210;-83
2023/06/23 01:11:09;;;;;;;12.48;6.20;;;18.30;99.90;;;;;;5059129;28;20242;-84
2023/06/23 01:13:41;;;;;;;10.23;6.70;;;18.30;99.90;;;;;;5058684;28;20187;-83
2023/06/23 01:16:12;;;;;;;11.57;7.85;;;18.30;99.90;;;;;;5059162;28;20189;-82
2023/06/23 01:18:48;;;;;;;11.50;7.15;;;18.20;99.90;;;;;;5058799;28;20187;-83
2023/06/23 01:21:19;;;;;;;15.55;9.27;;;18.20;99.90;;;;;;5059068;28;20229;-80
2023/06/23 01:24:11;;;;;;;16.85;9.90;;;18.20;99.90;;;;;;5058629;28;20682;-81
2023/06/23 01:26:49;;;;;;;13.15;8.77;;;18.20;99.90;;;;;;5059219;28;20222;-79
2023/06/23 01:29:22;;;;;;;17.33;10.20;;;18.20;99.90;;;;;;5058771;28;20223;-81
2023/06/23 01:31:55;;;;;;;15.85;8.52;;;18.10;99.90;;;;;;5059764;28;20282;-81
2023/06/23 01:34:28;;;;;;;14.95;9.63;;;18.10;99.90;;;;;;5059101;28;20217;-81
2023/06/23 01:37:01;;;;;;;16.33;11.15;;;18.20;99.90;;;;;;5058383;28;20206;-82
2023/06/23 01:39:31;;;;;;;15.80;10.85;;;18.10;99.90;;;;;;5057412;28;20194;-82
2023/06/23 01:42:01;;;;;;;14.40;10.07;;;18.20;99.90;;;;;;5057627;28;20218;-81
2023/06/23 01:44:32;;;;;;;14.48;10.82;;;18.10;99.90;;;;;;5070611;28;20360;-81
2023/06/23 01:47:10;;;;;;;14.48;10.07;;;18.20;99.90;;;;;;5077283;28;20226;-81
2023/06/23 01:49:38;;;;;;;15.07;9.55;;;18.20;99.90;;;;;;5059228;28;20203;-81
2023/06/23 01:52:07;;;;;;;15.38;9.82;;;18.20;99.90;;;;;;5058739;28;20229;-81
2023/06/23 01:54:39;;;;;;;14.32;9.75;;;18.20;99.90;;;;;;5071402;28;20183;-79
2023/06/23 01:57:08;;;;;;;16.05;9.65;;;18.30;99.90;;;;;;5059062;28;20199;-81
2023/06/23 01:59:39;;;;;;;13.10;9.60;;;18.20;99.90;;;;;;5058406;28;20203;-81
2023/06/23 02:02:07;;;;;;;15.98;9.70;;;18.20;99.90;;;;;;5057959;28;20292;-82
2023/06/23 02:04:36;;;;;;;15.25;10.45;;;18.20;99.90;;;;;;5057996;28;20206;-82
2023/06/23 02:07:05;;;;;;;14.48;10.13;;;18.20;99.90;;;;;;5058106;28;20233;-81
2023/06/23 02:09:34;;;;;;;14.65;10.52;;;18.30;99.90;;;;;;5058313;28;20211;-82
2023/06/23 02:12:03;;;;;;;13.57;10.25;;;18.30;99.90;;;;;;5058576;28;20733;-81
2023/06/23 02:14:31;;;;;;;14.18;9.85;;;18.30;99.90;;;;;;5059464;28;20261;-80
2023/06/23 02:16:59;;;;;;;16.45;10.15;;;18.30;99.90;;;;;;5067173;28;20191;-81
2023/06/23 02:19:28;;;;;;;13.15;9.27;;;18.20;99.90;;;;;;5078536;28;20208;-81
2023/06/23 02:21:57;;;;;;;15.13;10.55;;;18.30;99.90;;;;;;5078441;28;20229;-82
2023/06/23 02:24:26;;;;;;;14.55;10.45;;;18.30;99.90;;;;;;5078731;28;20210;-82
2023/06/23 02:26:54;;;;;;;13.38;10.05;;;18.30;99.90;;;;;;5072841;28;20242;-82
2023/06/23 02:29:22;;;;;;;15.32;11.18;;;18.30;99.90;;;;;;5062317;28;20207;-82
2023/06/23 02:31:50;;;;;;;17.67;11.38;;;18.30;99.90;;;;;;5061890;28;20219;-82
2023/06/23 02:34:19;;;;;;;14.88;10.43;;;18.30;99.90;;;;;;5061320;28;20235;-82
2023/06/23 02:36:49;;;;;;;15.52;11.15;;;18.30;99.90;;;;;;5061888;28;20203;-83
2023/06/23 02:39:19;;;;;;;16.73;11.02;;;18.30;99.90;;;;;;5062000;28;20241;-82
2023/06/23 02:41:52;;;;;;;16.15;11.75;;;18.30;99.90;;;;;;5061323;28;20250;-81
2023/06/23 02:44:26;;;;;;;17.40;11.77;;;18.30;99.90;;;;;;5061154;28;20243;-82
2023/06/23 02:46:57;;;;;;;14.77;12.50;;;18.30;99.90;;;;;;5061657;28;20225;-82
2023/06/23 02:49:30;;;;;;;16.92;12.82;;;18.40;99.90;;;;;;5061157;28;20188;-82
2023/06/23 02:52:00;;;;;;;19.02;13.57;;;18.40;99.90;;;;;;5059407;28;20231;-83
2023/06/23 02:54:31;;;;;;;18.50;13.13;;;18.30;99.90;;;;;;5059579;28;20188;-80
2023/06/23 02:56:59;;;;;;;19.17;14.60;;;18.30;99.90;;;;;;5058977;28;20195;-81
2023/06/23 02:59:27;;;;;;;19.08;14.68;;;18.30;99.90;;;;;;5058831;28;20291;-83
2023/06/23 03:01:58;;;;;;;20.17;15.27;;;18.30;99.90;;;;;;5059036;28;20226;-84
2023/06/23 03:04:27;;;;;;;21.52;15.60;;;18.30;99.90;;;;;;5058891;28;20187;-82
2023/06/23 03:06:54;;;;;;;19.85;16.00;;;18.30;99.90;;;;;;5059076;28;20231;-82
2023/06/23 03:09:21;;;;;;;20.48;16.50;;;18.30;99.90;;;;;;5060300;28;20209;-81
2023/06/23 03:11:48;;;;;;;21.40;16.67;;;18.30;99.90;;;;;;5053025;28;20219;-82
2023/06/23 03:14:15;;;;;;;22.95;17.55;;;18.30;99.90;;;;;;5039069;28;20199;-84
2023/06/23 03:16:46;;;;;;;23.60;18.25;;;18.30;99.90;;;;;;5038475;28;20206;-80
2023/06/23 03:19:27;;;;;;;24.13;18.95;;;18.40;99.90;;;;;;5037924;28;20194;-83
2023/06/23 03:22:05;;;;;;;23.50;19.48;;;18.40;99.90;;;;;;5038656;28;20227;-83
2023/06/23 03:24:34;;;;;;;24.38;20.05;;;18.40;99.90;;;;;;5038530;28;20207;-83
2023/06/23 03:27:06;;;;;;;25.02;19.95;;;18.40;99.90;;;;;;5039912;28;20587;-81
2023/06/23 03:29:39;;;;;;;23.50;20.27;;;18.40;99.90;;;;;;5040978;28;20685;-85
2023/06/23 03:32:08;;;;;;;25.15;21.27;;;18.40;99.90;;;;;;5039897;28;20251;-83
2023/06/23 03:34:41;;;;;;;26.77;21.75;;;18.40;99.90;;;;;;5039510;28;20210;-83
2023/06/23 03:37:13;;;;;;;24.02;21.15;;;18.40;99.90;;;;;;5038840;28;20207;-80
2023/06/23 03:39:43;;;;;;;26.08;21.00;;;18.30;99.90;;;;;;5039856;28;20236;-82
2023/06/23 03:42:10;;;;;;;25.75;21.00;;;18.40;99.90;;;;;;5039305;28;20219;-81
2023/06/23 03:44:42;;;;;;;28.48;23.65;;;18.30;99.90;;;;;;5039020;28;20212;-81
2023/06/23 03:47:15;;;;;;;27.80;23.42;;;18.30;99.90;;;;;;5039273;28;20237;-81
2023/06/23 03:49:45;;;;;;;31.00;25.00;;;18.30;99.90;;;;;;5037892;28;20647;-81
2023/06/23 03:52:16;;;;;;;28.13;24.38;;;18.30;99.90;;;;;;5038008;28;20204;-81
2023/06/23 03:54:45;;;;;;;27.35;24.15;;;18.30;99.90;;;;;;5038240;28;20206;-80
2023/06/23 03:57:16;;;;;;;26.35;22.90;;;18.40;99.90;;;;;;5037957;28;20598;-81
2023/06/23 03:59:44;;;;;;;29.25;24.65;;;18.30;99.90;;;;;;5037834;28;20246;-82
2023/06/23 04:02:14;;;;;;;31.05;24.33;;;18.40;99.90;;;;;;5039427;28;20581;-82
2023/06/23 04:04:44;;;;;;;26.30;23.35;;;18.40;99.90;;;;;;5038609;28;20215;-82
2023/06/23 04:07:15;;;;;;;30.02;23.42;;;18.40;99.90;;;;;;5038118;28;20210;-82
2023/06/23 04:09:46;;;;;;;26.35;22.05;;;18.40;99.90;;;;;;5037232;28;20203;-78
2023/06/23 04:12:16;;;;;;;28.50;24.55;;;18.30;99.90;;;;;;5037471;28;20198;-82
2023/06/23 04:14:46;;;;;;;27.52;22.48;;;18.40;99.90;;;;;;5038199;28;20272;-82
2023/06/23 04:17:15;;;;;;;24.42;21.75;;;18.40;99.90;;;;;;5038118;28;20203;-82
2023/06/23 04:19:45;;;;;;;23.20;20.52;;;18.40;99.90;;;;;;5038042;28;20685;-81
2023/06/23 04:22:18;;;;;;;24.83;20.63;;;18.30;99.90;;;;;;5038596;28;20192;-80
2023/06/23 04:24:46;;;;;;;24.27;19.73;;;18.30;99.90;;;;;;5039391;28;20226;-81
2023/06/23 04:27:16;;;;;;;22.70;19.45;;;18.30;99.90;;;;;;5038885;28;20228;-81
2023/06/23 04:29:45;;;;;;;22.27;18.88;;;18.30;99.90;;;;;;5038681;28;20204;-81
2023/06/23 04:32:14;;;;;;;21.58;18.38;;;18.30;99.90;;;;;;5038677;28;20207;-82
2023/06/23 04:34:42;;;;;;;22.38;18.98;;;18.30;99.90;;;;;;5038529;28;20567;-80
2023/06/23 04:37:13;;;;;;;22.23;18.70;;;18.30;99.90;;;;;;5038760;28;20199;-80
2023/06/23 04:39:48;;;;;;;22.23;18.73;;;18.30;99.90;;;;;;5039133;28;20191;-82
2023/06/23 04:42:22;;;;;;;23.02;18.65;;;18.30;99.90;;;;;;5036760;28;20202;-82
2023/06/23 04:44:52;;;;;;;19.48;17.10;;;18.20;99.90;;;;;;5044134;28;20209;-82
2023/06/23 04:47:23;;;;;;;20.40;16.80;;;18.30;99.90;;;;;;5056127;28;20213;-81
2023/06/23 04:49:54;;;;;;;20.15;16.55;;;18.20;99.90;;;;;;5056702;28;20572;-81
2023/06/23 04:52:22;;;;;;;22.10;16.05;;;18.20;99.90;;;;;;5055902;28;20583;-82
2023/06/23 04:54:54;;;;;;;17.98;14.57;;;18.20;99.90;;;;;;5056506;28;20238;-79
2023/06/23 04:57:26;;;;;;;18.50;14.20;;;18.20;99.90;;;;;;5055174;28;20225;-82
2023/06/23 04:59:56;;;;;;;18.63;14.80;;;18.10;99.90;;;;;;5056192;28;20187;-79
2023/06/23 05:02:26;;;;;;;19.42;14.63;;;18.10;99.90;;;;;;5055311;28;20289;-81
2023/06/23 05:04:55;;;;;;;18.15;13.27;;;17.90;99.90;;;;;;5056470;28;20297;-81
2023/06/23 05:07:24;;;;;;;16.60;13.93;;;17.80;99.90;;;;;;5056756;28;20280;-80
2023/06/23 05:09:53;;;;;;;17.75;13.73;;;17.90;99.90;;;;;;5057379;28;20297;-82
2023/06/23 05:12:23;;;;;;;20.05;13.63;;;17.80;99.90;;;;;;5057047;28;20234;-80
2023/06/23 05:14:51;;;;;;;17.20;13.23;;;17.70;99.90;;;;;;5056839;28;20202;-82
2023/06/23 05:17:21;;;;;;;15.20;12.20;;;17.70;99.90;;;;;;5055647;28;20199;-78
2023/06/23 05:19:50;;;;;;;16.05;12.60;;;17.70;99.90;;;;;;5046805;28;20550;-78
2023/06/23 05:22:19;;;;;;;15.73;13.32;;;17.60;99.90;;;;;;5048671;28;20206;-83
2023/06/23 05:24:50;;;;;;;17.40;13.80;;;17.60;99.90;;;;;;5075245;28;20232;-78
2023/06/23 05:27:21;;;;;;;16.30;12.40;;;17.60;99.90;;;;;;5047364;28;20212;-81
2023/06/23 05:29:49;;;;;;;14.00;10.57;;;17.60;99.90;;;;;;5050819;28;20199;-79
2023/06/23 05:32:18;;;;;;;13.93;11.30;;;17.70;99.90;;;;;;5065149;28;20203;-80
2023/06/23 05:34:48;;;;;;;13.93;11.15;;;17.70;99.90;;;;;;5055557;28;20221;-80
2023/06/23 05:37:18;;;;;;;13.05;10.77;;;17.60;99.90;;;;;;5036216;28;20563;-80
2023/06/23 05:39:47;;;;;;;13.88;11.20;;;17.70;99.90;;;;;;5036691;28;20208;-81
2023/06/23 05:42:14;;;;;;;12.15;10.45;;;17.70;99.90;;;;;;5037234;28;20207;-81
2023/06/23 05:44:42;;;;;;;10.90;8.68;;;17.70;99.90;;;;;;5036601;28;20576;-79
2023/06/23 05:47:15;;;;;;;11.23;8.63;;;17.60;99.90;;;;;;5050118;28;20325;-78
2023/06/23 05:49:44;;;;;;;11.48;8.65;;;17.70;99.90;;;;;;5056176;28;20203;-83
2023/06/23 05:52:14;;;;;;;9.80;7.45;;;17.60;99.90;;;;;;5054968;28;20210;-81
2023/06/23 05:54:45;;;;;;;8.57;7.32;;;17.60;99.90;;;;;;5055595;28;20203;-81
2023/06/23 05:57:20;;;;;;;8.07;6.80;;;17.50;99.90;;;;;;5051441;28;20238;-81
2023/06/23 05:59:59;;;;;;;9.90;6.55;;;17.50;99.90;;;;;;5050323;28;20187;-81
2023/06/23 06:02:29;;;;;;;7.25;6.13;;;17.50;99.90;;;;;;5058813;28;20204;-81
2023/06/23 06:05:00;;;;;;;8.00;6.50;;;17.60;99.90;;;;;;5059447;28;20589;-79
2023/06/23 06:07:28;;;;;;;5.65;5.10;;;17.50;99.90;;;;;;5059330;28;20222;-79
2023/06/23 06:09:57;;;;;;;5.53;4.60;;;17.50;99.90;;;;;;5059424;28;20226;-79
2023/06/23 06:12:25;;;;;;;5.07;3.85;;;17.50;99.90;;;;;;5060231;28;20203;-81
2023/06/23 06:14:55;;;;;;;3.30;2.80;;;17.40;99.90;;;;;;5060328;28;20203;-79
2023/06/23 06:17:24;;;;;;;3.20;2.90;;;17.30;99.90;;;;;;5059524;28;20198;-82
2023/06/23 06:19:55;;;;;;;3.20;2.90;;;17.30;99.90;;;;;;5059350;28;20556;-82
2023/06/23 06:22:22;;;;;;;2.65;2.45;;;17.20;99.90;;;;;;5060202;28;20683;-83
2023/06/23 06:24:51;;;;;;;3.70;2.78;;;17.30;99.90;;;;;;5059823;28;20195;-82
2023/06/23 06:27:19;;;;;;;3.40;2.90;;;17.20;99.90;;;;;;5060511;28;20218;-83
2023/06/23 06:29:48;;;;;;;3.95;3.55;;;17.20;99.90;;;;;;5053548;28;20200;-80
2023/06/23 06:32:17;;;;;;;3.90;3.50;;;17.10;99.90;;;;;;5039737;28;20208;-79
2023/06/23 06:34:46;;;;;;;4.00;3.60;;;17.00;99.90;;;;;;5038989;28;20212;-82
2023/06/23 06:37:14;;;;;;;5.10;3.97;;;17.00;99.90;;;;;;5039189;28;20208;-82
2023/06/23 06:39:43;;;;;;;5.18;4.68;;;16.90;99.90;;;;;;5058298;28;20289;-84
2023/06/23 06:42:10;;;;;;;4.93;4.20;;;16.90;99.90;;;;;;5060538;28;20585;-82
2023/06/23 06:44:37;;;;;;;6.65;4.68;;;16.70;99.90;;;;;;5060019;28;20217;-85
2023/06/23 06:47:05;;;;;;;6.65;5.07;;;16.70;99.90;;;;;;5059810;28;20233;-81
2023/06/23 06:49:36;;;;;;;7.50;5.25;;;16.60;99.90;;;;;;5060048;28;20206;-80
2023/06/23 06:52:04;;;;;;;6.97;5.00;;;16.60;99.90;;;;;;5037601;28;20229;-80
2023/06/23 06:54:31;;;;;;;7.18;5.07;;;16.50;99.90;;;;;;5037377;28;20219;-84
2023/06/23 06:56:59;;;;;;;7.13;5.35;;;16.50;99.90;;;;;;5037840;28;20214;-81
2023/06/23 06:59:26;;;;;;;8.23;4.85;;;16.40;99.90;;;;;;5038111;28;20200;-81
2023/06/23 07:01:54;;;;;;;6.53;5.28;;;16.40;99.90;;;;;;5037855;28;20583;-82
2023/06/23 07:04:21;;;;;;;7.30;5.30;;;16.40;99.90;;;;;;5037994;28;20317;-81
2023/06/23 07:06:53;;;;;;;5.30;4.78;;;16.40;99.90;;;;;;5054198;28;20223;-83
2023/06/23 07:09:20;;;;;;;5.72;4.70;;;16.40;99.90;;;;;;5058203;28;20239;-80
2023/06/23 07:11:48;;;;;;;7.18;4.55;;;16.50;99.90;;;;;;5058079;28;20230;-84
2023/06/23 07:14:15;;;;;;;7.53;4.72;;;16.50;99.90;;;;;;5060117;28;20199;-82
2023/06/23 07:16:42;;;;;;;6.93;5.85;;;16.40;99.90;;;;;;5059932;28;20209;-82
2023/06/23 07:19:09;;;;;;;8.95;5.95;;;16.30;99.90;;;;;;5059717;28;20207;-81
2023/06/23 07:21:36;;;;;;;10.73;7.50;;;16.30;99.90;;;;;;5059957;28;20225;-79
2023/06/23 07:24:04;;;;;;;11.25;7.18;;;16.20;99.90;;;;;;5058117;28;20205;-83
2023/06/23 07:26:31;;;;;;;10.10;7.22;;;16.10;99.90;;;;;;5057117;28;20199;-82
2023/06/23 07:28:57;;;;;;;8.32;6.50;;;16.10;99.90;;;;;;5057218;28;20638;-82
2023/06/23 07:31:25;;;;;;;9.30;6.28;;;16.00;99.90;;;;;;5060307;28;20706;-82
2023/06/23 07:33:52;;;;;;;8.20;5.70;;;16.10;99.90;;;;;;5060011;28;20646;-83
2023/06/23 07:36:19;;;;;;;7.80;6.25;;;16.10;99.90;;;;;;5059185;28;20199;-82
2023/06/23 07:38:46;;;;;;;8.60;6.30;;;16.10;99.90;;;;;;5059333;28;20206;-80
2023/06/23 07:41:14;;;;;;;7.10;5.70;;;16.10;99.90;;;;;;5059343;28;20227;-83
2023/06/23 07:43:43;;;;;;;8.10;5.65;;;16.10;99.90;;;;;;5058836;28;20659;-83
2023/06/23 07:46:10;;;;;;;8.45;6.65;;;16.10;99.90;;;;;;5057486;28;20203;-82
2023/06/23 07:48:37;;;;;;;8.80;6.72;;;16.10;99.90;;;;;;5058558;28;20227;-82
2023/06/23 07:51:04;;;;;;;9.40;6.28;;;16.20;99.90;;;;;;5059196;28;20633;-83
2023/06/23 07:53:31;;;;;;;9.85;6.88;;;16.20;99.90;;;;;;5058458;28;20215;-82
2023/06/23 07:55:57;;;;;;;8.90;6.63;;;16.30;99.90;;;;;;5058288;28;20207;-81
2023/06/23 07:58:25;;;;;;;8.70;6.20;;;16.20;99.90;;;;;;5058611;28;20301;-83
2023/06/23 08:00:53;;;;;;;8.80;6.10;;;16.40;99.90;;;;;;5057604;28;20233;-82
2023/06/23 08:03:20;;;;;;;10.27;6.38;;;16.30;99.90;;;;;;5058301;28;20226;-82
2023/06/23 08:05:47;;;;;;;9.27;6.38;;;16.30;99.90;;;;;;5056865;28;20663;-84
2023/06/23 08:08:13;;;;;;;9.85;6.28;;;16.40;99.90;;;;;;5058449;28;20679;-80
2023/06/23 08:10:40;;;;;;;8.85;6.38;;;16.50;99.90;;;;;;5057013;28;20223;-82
2023/06/23 08:13:07;;;;;;;8.55;6.38;;;16.40;99.90;;;;;;5057677;28;20207;-82
2023/06/23 08:15:35;;;;;;;8.02;5.97;;;16.40;99.90;;;;;;5057188;28;20210;-82
2023/06/23 08:18:02;;;;;;;9.10;7.15;;;16.50;99.90;;;;;;5041188;28;20204;-82
2023/06/23 08:20:28;;;;;;;8.48;6.50;;;16.50;99.90;;;;;;5071663;28;20587;-81
2023/06/23 08:22:55;;;;;;;9.05;6.38;;;16.50;99.90;;;;;;5057158;28;20229;-80
2023/06/23 08:25:22;;;;;;;7.95;5.90;;;16.50;99.90;;;;;;5050085;28;20564;-81
2023/06/23 08:27:49;;;;;;;7.63;6.30;;;16.50;99.90;;;;;;5057562;28;20241;-80
2023/06/23 08:30:16;;;;;;;5.88;5.28;;;16.60;99.90;;;;;;5057006;28;20223;-81
2023/06/23 08:32:44;;;;;;;6.10;4.55;;;16.60;99.90;;;;;;5058612;28;20214;-80
2023/06/23 08:35:11;;;;;;;5.38;4.60;;;16.60;99.90;;;;;;5048835;28;20215;-80
2023/06/23 08:37:38;;;;;;;7.05;5.75;;;16.60;99.90;;;;;;5049607;28;20199;-80
2023/06/23 08:40:05;;;;;;;9.15;6.15;;;16.60;99.90;;;;;;5057149;28;20206;-80
2023/06/23 08:42:34;;;;;;;11.15;7.10;;;16.70;99.90;;;;;;5057981;28;20210;-79
2023/06/23 08:45:03;;;;;;;11.25;7.60;;;16.70;99.90;;;;;;5056768;28;20203;-83
2023/06/23 08:47:32;;;;;;;10.10;7.90;;;16.80;99.90;;;;;;5057227;28;20259;-80
2023/06/23 08:50:01;;;;;;;9.98;7.35;;;16.80;99.90;;;;;;5050434;28;20200;-82
2023/06/23 08:52:28;;;;;;;9.07;7.72;;;16.80;99.90;;;;;;5037014;28;20211;-83
2023/06/23 08:54:55;;;;;;;10.23;7.70;;;16.80;99.90;;;;;;5046881;28;20203;-81
2023/06/23 08:57:22;;;;;;;9.93;8.02;;;16.90;99.90;;;;;;5056650;28;20210;-79
2023/06/23 08:59:49;;;;;;;10.85;7.30;;;16.80;99.90;;;;;;5055720;28;20226;-82
2023/06/23 09:02:16;;;;;;;10.75;7.80;;;16.90;99.90;;;;;;5055709;28;20214;-81
2023/06/23 09:04:43;;;;;;;11.52;8.32;;;16.70;99.90;;;;;;5037415;28;20200;-80
2023/06/23 09:07:11;;;;;;;10.50;7.35;;;16.70;99.90;;;;;;5047250;28;20205;-80
2023/06/23 09:09:40;;;;;;;11.68;8.05;;;16.70;99.90;;;;;;5056026;28;20199;-79
2023/06/23 09:12:08;;;;;;;9.05;7.03;;;16.70;99.90;;;;;;5054493;28;20586;-80
2023/06/23 09:14:37;;;;;;;11.95;8.60;;;16.70;99.90;;;;;;5064010;28;20199;-78
2023/06/23 09:17:05;;;;;;;11.25;8.07;;;16.70;99.90;;;;;;5055848;28;20225;-80
2023/06/23 09:19:33;;;;;;;10.35;7.82;;;16.70;99.90;;;;;;5060895;28;20199;-81
2023/06/23 09:22:00;;;;;;;11.32;8.60;;;16.60;99.90;;;;;;5043594;28;20231;-79
2023/06/23 09:24:41;;;;;;;11.75;8.38;;;16.60;99.90;;;;;;5057032;28;20199;-79
2023/06/23 09:27:07;;;;;;;11.07;7.75;;;16.60;99.90;;;;;;5065094;28;20202;-80
2023/06/23 09:29:37;;;;;;;9.32;7.07;;;16.70;99.90;;;;;;5069828;28;20310;-79
2023/06/23 09:32:04;;;;;;;8.82;6.53;;;16.70;99.90;;;;;;5055167;28;20219;-79
2023/06/23 09:34:34;;;;;;;9.45;7.00;;;16.70;99.90;;;;;;5056317;28;20207;-80
2023/06/23 09:37:11;;;;;;;11.45;7.68;;;16.70;99.90;;;;;;5055644;28;20256;-80
2023/06/23 09:39:41;;;;;;;10.35;7.65;;;16.70;99.90;;;;;;5062132;28;20207;-82
2023/06/23 09:42:12;;;;;;;12.15;6.95;;;16.70;99.90;;;;;;5073848;28;20222;-80
2023/06/23 09:44:40;;;;;;;10.55;6.90;;;16.70;99.90;;;;;;5076589;28;20277;-79
2023/06/23 09:47:08;;;;;;;8.05;5.72;;;16.70;99.90;;;;;;5076041;28;20211;-80
2023/06/23 09:49:38;;;;;;;8.13;6.07;;;16.70;99.90;;;;;;5075862;28;20222;-79
2023/06/23 09:52:07;;;;;;;8.52;6.05;;;16.80;99.90;;;;;;5057521;28;20634;-80
2023/06/23 09:54:36;;;;;;;9.23;6.40;;;16.80;99.90;;;;;;5044078;28;20208;-79
2023/06/23 09:57:06;;;;;;;9.27;6.15;;;16.80;99.90;;;;;;5046931;28;20194;-78
2023/06/23 09:59:33;;;;;;;8.38;5.72;;;16.80;99.90;;;;;;5055635;28;20321;-80
2023/06/23 10:02:00;;;;;;;7.40;5.50;;;16.80;99.90;;;;;;5053711;28;20227;-79
2023/06/23 10:04:29;;;;;;;10.63;6.15;;;16.80;99.90;;;;;;5048821;28;20670;-79
2023/06/23 10:06:56;;;;;;;8.60;6.28;;;16.80;99.90;;;;;;5060546;28;20313;-80
2023/06/23 10:09:24;;;;;;;9.75;6.07;;;16.90;99.90;;;;;;5046951;28;20593;-80
2023/06/23 10:11:51;;;;;;;10.23;6.30;;;16.80;99.90;;;;;;5037422;28;20223;-81
2023/06/23 10:14:20;;;;;;;9.48;6.18;;;16.90;99.90;;;;;;5041624;28;20654;-80
2023/06/23 10:16:48;;;;;;;10.05;6.18;;;16.90;99.90;;;;;;5055678;28;20203;-80
2023/06/23 10:19:16;;;;;;;8.30;6.10;;;17.00;99.90;;;;;;5034718;28;20294;-81
2023/06/23 10:21:45;;;;;;;9.73;6.90;;;17.00;99.90;;;;;;5034699;28;20227;-80
2023/06/23 10:24:16;;;;;;;8.40;5.97;;;16.90;99.90;;;;;;5052458;28;20199;-80
2023/06/23 10:26:45;;;;;;;9.35;6.60;;;17.00;99.90;;;;;;5062234;28;20199;-80
2023/06/23 10:29:14;;;;;;;10.18;6.68;;;17.00;99.90;;;;;;5063597;28;20237;-80
2023/06/23 10:31:44;;;;;;;10.65;6.40;;;17.00;99.90;;;;;;5048211;28;20219;-82
2023/06/23 10:34:12;;;;;;;10.00;6.88;;;17.10;99.90;;;;;;5049481;28;20202;-81
2023/06/23 10:36:41;;;;;;;11.13;7.47;;;17.00;99.90;;;;;;5052021;28;20643;-81
2023/06/23 10:39:11;;;;;;;8.25;6.68;;;17.10;99.90;;;;;;5044968;28;20203;-80
2023/06/23 10:41:39;;;;;;;10.07;7.55;;;17.10;99.90;;;;;;5034390;28;20219;-79
2023/06/23 10:44:06;;;;;;;9.88;6.47;;;17.10;99.90;;;;;;5038125;28;20713;-79
2023/06/23 10:46:35;;;;;;;10.05;6.50;;;17.00;99.90;;;;;;5076056;28;20198;-79
2023/06/23 10:49:07;;;;;;;9.38;6.55;;;17.00;99.90;;;;;;5067328;28;20367;-80
2023/06/23 10:51:35;;;;;;;10.00;6.68;;;17.00;99.90;;;;;;5061467;28;20591;-80
2023/06/23 10:54:05;;;;;;;9.63;7.03;;;17.10;99.90;;;;;;5041036;28;20219;-81
2023/06/23 10:56:32;;;;;;;10.27;6.93;;;17.20;99.90;;;;;;5037542;28;20656;-81
2023/06/23 10:59:00;;;;;;;9.93;6.70;;;17.10;99.90;;;;;;5055917;28;20201;-82
2023/06/23 11:01:27;;;;;;;9.48;6.82;;;17.10;99.90;;;;;;5059012;28;20227;-79
2023/06/23 11:03:58;;;;;;;8.75;6.45;;;17.10;99.90;;;;;;5057742;28;20253;-79
2023/06/23 11:06:30;;;;;;;11.27;7.55;;;17.10;99.90;;;;;;5037846;28;20195;-79
2023/06/23 11:08:58;;;;;;;11.48;7.07;;;17.10;99.90;;;;;;5045791;28;20674;-79
2023/06/23 11:11:32;;;;;;;10.65;7.38;;;17.10;99.90;;;;;;5069262;28;20655;-81
2023/06/23 11:14:00;;;;;;;9.52;7.30;;;17.20;99.90;;;;;;5061037;28;20642;-79
2023/06/23 11:16:33;;;;;;;13.07;7.40;;;17.10;99.90;;;;;;5042188;28;20592;-80
2023/06/23 11:19:01;;;;;;;11.05;7.53;;;17.20;99.90;;;;;;5072626;28;20209;-80
2023/06/23 11:21:34;;;;;;;12.15;7.85;;;17.20;99.90;;;;;;5065505;28;20276;-80
2023/06/23 11:24:15;;;;;;;11.10;8.50;;;17.20;99.90;;;;;;5057816;28;20207;-80
2023/06/23 11:26:44;;;;;;;11.70;8.00;;;17.40;99.90;;;;;;5058331;28;20260;-80
2023/06/23 11:29:13;;;;;;;11.63;8.00;;;17.30;99.90;;;;;;5053412;28;20219;-79
2023/06/23 11:32:03;;;;;;;13.00;8.85;;;17.30;99.90;;;;;;5051050;28;20286;-80
2023/06/23 11:34:30;;;;;;;13.93;8.85;;;17.40;99.90;;;;;;5049488;28;20229;-79
2023/06/23 11:36:58;;;;;;;12.70;9.35;;;17.40;99.90;;;;;;5049922;28;20203;-79
2023/06/23 11:39:26;;;;;;;13.25;9.55;;;17.40;99.90;;;;;;5038069;28;20213;-79
2023/06/23 11:41:53;;;;;;;13.80;9.52;;;17.50;99.90;;;;;;5038229;28;20575;-79
2023/06/23 11:44:22;;;;;;;15.30;10.05;;;17.60;99.90;;;;;;5045361;28;20200;-80
2023/06/23 11:46:52;;;;;;;14.23;10.40;;;17.60;99.90;;;;;;5058660;28;20531;-80
2023/06/23 11:49:19;;;;;;;13.48;10.00;;;17.60;99.90;;;;;;5064086;28;20215;-80
2023/06/23 11:51:46;;;;;;;16.70;11.90;;;17.70;99.90;;;;;;5041850;28;20223;-81
2023/06/23 11:54:14;;;;;;;14.90;10.88;;;17.70;99.90;;;;;;5056085;28;20667;-79
2023/06/23 11:56:42;;;;;;;15.82;10.93;;;17.70;99.90;;;;;;5045980;28;20210;-79
2023/06/23 11:59:10;;;;;;;16.23;12.38;;;17.80;99.90;;;;;;5037151;28;20204;-80
2023/06/23 12:01:37;;;;;;;16.92;11.63;;;17.80;99.90;;;;;;5036707;28;20231;-81
2023/06/23 12:04:05;;;;;;;15.88;11.05;;;17.80;99.90;;;;;;5036991;28;20208;-79
2023/06/23 12:06:37;;;;;;;16.33;12.55;;;17.80;99.90;;;;;;5036745;28;20207;-81
2023/06/23 12:09:05;;;;;;;17.58;12.38;;;17.80;99.90;;;;;;5046053;28;20269;-80
2023/06/23 12:11:37;;;;;;;18.65;14.25;;;17.90;99.90;;;;;;5056477;28;20226;-79
2023/06/23 12:14:04;;;;;;;19.77;13.88;;;18.00;99.90;;;;;;5056550;28;20256;-80
2023/06/23 12:16:36;;;;;;;16.90;13.38;;;18.00;99.90;;;;;;5057227;28;20235;-80
2023/06/23 12:19:03;;;;;;;18.33;14.50;;;18.00;99.90;;;;;;5056569;28;20237;-80
2023/06/23 12:21:32;;;;;;;18.50;15.10;;;18.10;99.90;;;;;;5055799;28;20230;-81
2023/06/23 12:24:00;;;;;;;21.52;14.85;;;18.10;99.90;;;;;;5063143;28;20211;-79
2023/06/23 12:26:27;;;;;;;21.63;15.18;;;18.10;99.90;;;;;;5052722;28;20225;-80
2023/06/23 12:29:08;;;;;;;20.35;15.73;;;18.30;99.90;;;;;;5064126;28;20218;-80
2023/06/23 12:31:34;;;;;;;18.33;14.10;;;18.20;99.90;;;;;;5049015;28;20486;-80
2023/06/23 12:34:02;;;;;;;20.30;15.63;;;18.30;99.90;;;;;;5063004;28;20205;-80
2023/06/23 12:36:29;;;;;;;17.95;13.80;;;18.30;99.90;;;;;;5063825;28;20790;-80
2023/06/23 12:38:56;;;;;;;20.42;15.38;;;18.30;99.90;;;;;;5062194;28;20202;-80
2023/06/23 12:41:26;;;;;;;17.88;14.95;;;18.50;99.90;;;;;;5058390;28;20215;-80
2023/06/23 12:43:57;;;;;;;20.00;14.75;;;18.50;99.90;;;;;;5051890;28;20252;-80
2023/06/23 12:46:25;;;;;;;19.27;14.40;;;18.40;99.90;;;;;;5039091;28;20206;-80